地図

経路データ

SID SEASON NUMBER BASIN SUBBASIN NAME ISO_TIME NATURE LAT LON WMO_WIND WMO_PRES WMO_AGENCY TRACK_TYPE DIST2LAND LANDFALL IFLAG USA_AGENCY USA_ATCF_ID USA_LAT USA_LON USA_RECORD USA_STATUS USA_WIND USA_PRES USA_SSHS USA_R34_NE USA_R34_SE USA_R34_SW USA_R34_NW USA_R50_NE USA_R50_SE USA_R50_SW USA_R50_NW USA_R64_NE USA_R64_SE USA_R64_SW USA_R64_NW USA_POCI USA_ROCI USA_RMW USA_EYE TOKYO_LAT TOKYO_LON TOKYO_GRADE TOKYO_WIND TOKYO_PRES TOKYO_R50_DIR TOKYO_R50_LONG TOKYO_R50_SHORT TOKYO_R30_DIR TOKYO_R30_LONG TOKYO_R30_SHORT TOKYO_LAND CMA_LAT CMA_LON CMA_CAT CMA_WIND CMA_PRES HKO_LAT HKO_LON HKO_CAT HKO_WIND HKO_PRES NEWDELHI_LAT NEWDELHI_LON NEWDELHI_GRADE NEWDELHI_WIND NEWDELHI_PRES NEWDELHI_CI NEWDELHI_DP NEWDELHI_POCI REUNION_LAT REUNION_LON REUNION_TYPE REUNION_WIND REUNION_PRES REUNION_TNUM REUNION_CI REUNION_RMW REUNION_R34_NE REUNION_R34_SE REUNION_R34_SW REUNION_R34_NW REUNION_R50_NE REUNION_R50_SE REUNION_R50_SW REUNION_R50_NW REUNION_R64_NE REUNION_R64_SE REUNION_R64_SW REUNION_R64_NW BOM_LAT BOM_LON BOM_TYPE BOM_WIND BOM_PRES BOM_TNUM BOM_CI BOM_RMW BOM_R34_NE BOM_R34_SE BOM_R34_SW BOM_R34_NW BOM_R50_NE BOM_R50_SE BOM_R50_SW BOM_R50_NW BOM_R64_NE BOM_R64_SE BOM_R64_SW BOM_R64_NW BOM_ROCI BOM_POCI BOM_EYE BOM_POS_METHOD BOM_PRES_METHOD NADI_LAT NADI_LON NADI_CAT NADI_WIND NADI_PRES WELLINGTON_LAT WELLINGTON_LON WELLINGTON_WIND WELLINGTON_PRES DS824_LAT DS824_LON DS824_STAGE DS824_WIND DS824_PRES TD9636_LAT TD9636_LON TD9636_STAGE TD9636_WIND TD9636_PRES TD9635_LAT TD9635_LON TD9635_WIND TD9635_PRES TD9635_ROCI NEUMANN_LAT NEUMANN_LON NEUMANN_CLASS NEUMANN_WIND NEUMANN_PRES MLC_LAT MLC_LON MLC_CLASS MLC_WIND MLC_PRES USA_GUST BOM_GUST BOM_GUST_PER REUNION_GUST REUNION_GUST_PER USA_SEAHGT USA_SEARAD_NE USA_SEARAD_SE USA_SEARAD_SW USA_SEARAD_NW STORM_SPEED STORM_DIR
1891207N15123 1891 16 WP MM NOT_NAMED 1891-07-25 16:00:00 NR 14.7000 122.900 main 55 55 __________O___ -1 14.7000 122.900 7 18 287
1891207N15123 1891 16 WP MM NOT_NAMED 1891-07-25 18:00:00 NR 14.8787 122.313 main 68 10 __________P___ -1 14.8787 122.313 7 17 287
1891207N15123 1891 16 WP MM NOT_NAMED 1891-07-25 21:00:00 NR 15.1345 121.469 main 10 0 __________P___ -1 15.1345 121.469 7 16 288
1891207N15123 1891 16 WP MM NOT_NAMED 1891-07-26 00:00:00 NR 15.3625 120.727 main 0 0 __________P___ -1 15.3625 120.727 7 13 288
1891207N15123 1891 16 WP MM NOT_NAMED 1891-07-26 03:00:00 NR 15.5492 120.146 main 0 0 __________P___ -1 15.5492 120.146 7 11 289
1891207N15123 1891 16 WP MM NOT_NAMED 1891-07-26 04:00:00 NR 15.6000 120.000 main 0 0 __________O___ -1 15.6000 120.000 4 7 291
1891207N15123 1891 16 WP MM NOT_NAMED 1891-07-26 06:00:00 NR 15.6831 119.784 main 10 10 __________P___ -1 15.6831 119.784 4 5 295
1891207N15123 1891 16 WP MM NOT_NAMED 1891-07-26 09:00:00 NR 15.7710 119.613 main 24 24 __________P___ -1 15.7710 119.613 4 3 304
1891207N15123 1891 16 WP MM NOT_NAMED 1891-07-26 12:00:00 NR 15.8313 119.551 main 24 24 __________P___ -1 15.8313 119.551 4 1 321
1891207N15123 1891 16 WP MM NOT_NAMED 1891-07-26 15:00:00 NR 15.8821 119.519 main 24 24 __________P___ -1 15.8821 119.519 4 1 321
1891207N15123 1891 16 WP MM NOT_NAMED 1891-07-26 16:00:00 NR 15.9000 119.500 main 24 24 __________O___ -1 15.9000 119.500 4 3 300
1891207N15123 1891 16 WP MM NOT_NAMED 1891-07-26 18:00:00 NR 15.9527 119.387 main 32 32 __________P___ -1 15.9527 119.387 4 4 295
1891207N15123 1891 16 WP MM NOT_NAMED 1891-07-26 21:00:00 NR 16.0317 119.204 main 53 53 __________P___ -1 16.0317 119.204 4 4 294
1891207N15123 1891 16 WP MM NOT_NAMED 1891-07-27 00:00:00 NR 16.1080 119.021 main 75 75 __________P___ -1 16.1080 119.021 4 4 293
1891207N15123 1891 16 WP MM NOT_NAMED 1891-07-27 03:00:00 NR 16.1784 118.851 main 88 98 __________P___ -1 16.1784 118.851 4 3 294
1891207N15123 1891 16 WP MM NOT_NAMED 1891-07-27 04:00:00 NR 16.2000 118.800 main 98 98 __________O___ -1 16.2000 118.800 4 3 297
1891207N15123 1891 16 WP MM NOT_NAMED 1891-07-27 06:00:00 NR 16.2390 118.724 main 109 109 __________P___ -1 16.2390 118.724 4 2 299
1891207N15123 1891 16 WP MM NOT_NAMED 1891-07-27 09:00:00 NR 16.2911 118.629 main 122 122 __________P___ -1 16.2911 118.629 4 2 300
1891207N15123 1891 16 WP MM NOT_NAMED 1891-07-27 12:00:00 NR 16.3386 118.541 main 132 132 __________P___ -1 16.3386 118.541 4 2 297
1891207N15123 1891 16 WP MM NOT_NAMED 1891-07-27 15:00:00 NR 16.3845 118.440 main 145 145 __________P___ -1 16.3845 118.440 4 2 295
1891207N15123 1891 16 WP MM NOT_NAMED 1891-07-27 16:00:00 NR 16.4000 118.400 main 145 145 __________O___ -1 16.4000 118.400 4 3 290
1891207N15123 1891 16 WP MM NOT_NAMED 1891-07-27 18:00:00 NR 16.4307 118.300 main 156 156 __________P___ -1 16.4307 118.300 4 3 287
1891207N15123 1891 16 WP MM NOT_NAMED 1891-07-27 21:00:00 NR 16.4768 118.132 main 179 179 __________P___ -1 16.4768 118.132 4 4 286
1891207N15123 1891 16 WP MM NOT_NAMED 1891-07-28 00:00:00 NR 16.5255 117.950 main 200 200 __________P___ -1 16.5255 117.950 4 4 286
1891207N15123 1891 16 WP MM NOT_NAMED 1891-07-28 03:00:00 NR 16.5800 117.762 main 213 213 __________P___ -1 16.5800 117.762 4 4 287
1891207N15123 1891 16 WP MM NOT_NAMED 1891-07-28 04:00:00 NR 16.6000 117.700 main 223 223 __________O___ -1 16.6000 117.700 4 4 290
1891207N15123 1891 16 WP MM NOT_NAMED 1891-07-28 06:00:00 NR 16.6417 117.581 main 234 234 __________P___ -1 16.6417 117.581 4 4 291
1891207N15123 1891 16 WP MM NOT_NAMED 1891-07-28 09:00:00 NR 16.7104 117.402 main 257 257 __________P___ -1 16.7104 117.402 4 4 293
1891207N15123 1891 16 WP MM NOT_NAMED 1891-07-28 12:00:00 NR 16.7866 117.225 main 281 281 __________P___ -1 16.7866 117.225 4 4 296
1891207N15123 1891 16 WP MM NOT_NAMED 1891-07-28 15:00:00 NR 16.8704 117.055 main 295 305 __________P___ -1 16.8704 117.055 4 4 298
1891207N15123 1891 16 WP MM NOT_NAMED 1891-07-28 16:00:00 NR 16.9000 117.000 main 305 305 __________O___ -1 16.9000 117.000 4 3 302
1891207N15123 1891 16 WP MM NOT_NAMED 1891-07-28 18:00:00 NR 16.9635 116.902 main 318 318 __________P___ -1 16.9635 116.902 4 3 306
1891207N15123 1891 16 WP MM NOT_NAMED 1891-07-28 21:00:00 NR 17.0651 116.762 main 331 331 __________P___ -1 17.0651 116.762 4 3 307
1891207N15123 1891 16 WP MM NOT_NAMED 1891-07-29 00:00:00 NR 17.1690 116.618 main 355 355 __________P___ -1 17.1690 116.618 4 4 305
1891207N15123 1891 16 WP MM NOT_NAMED 1891-07-29 03:00:00 NR 17.2687 116.459 main 368 378 __________P___ -1 17.2687 116.459 4 4 302
1891207N15123 1891 16 WP MM NOT_NAMED 1891-07-29 04:00:00 NR 17.3000 116.400 main 378 378 __________O___ -1 17.3000 116.400 4 4 294
1891207N15123 1891 16 WP MM NOT_NAMED 1891-07-29 06:00:00 NR 17.3531 116.264 main 392 392 __________P___ -1 17.3531 116.264 4 4 290
1891207N15123 1891 16 WP MM NOT_NAMED 1891-07-29 09:00:00 NR 17.4264 116.042 main 422 422 __________P___ -1 17.4264 116.042 4 5 288
1891207N15123 1891 16 WP MM NOT_NAMED 1891-07-29 12:00:00 NR 17.4976 115.808 main 446 446 __________P___ -1 17.4976 115.808 4 5 288
1891207N15123 1891 16 WP MM NOT_NAMED 1891-07-29 15:00:00 NR 17.5729 115.575 main 469 469 __________P___ -1 17.5729 115.575 4 5 289
1891207N15123 1891 16 WP MM NOT_NAMED 1891-07-29 16:00:00 NR 17.6000 115.500 main 480 480 __________O___ -1 17.6000 115.500 4 5 292
1891207N15123 1891 16 WP MM NOT_NAMED 1891-07-29 18:00:00 NR 17.6610 115.348 main 500 476 __________P___ -1 17.6610 115.348 4 5 294
1891207N15123 1891 16 WP MM NOT_NAMED 1891-07-29 21:00:00 NR 17.7587 115.126 main 476 452 __________P___ -1 17.7587 115.126 4 5 296
1891207N15123 1891 16 WP MM NOT_NAMED 1891-07-30 00:00:00 NR 17.8613 114.922 main 452 428 __________P___ -1 17.8613 114.922 4 4 300
1891207N15123 1891 16 WP MM NOT_NAMED 1891-07-30 03:00:00 NR 17.9655 114.749 main 428 428 __________P___ -1 17.9655 114.749 4 4 304
1891207N15123 1891 16 WP MM NOT_NAMED 1891-07-30 04:00:00 NR 18.0000 114.700 main 428 414 __________O___ -1 18.0000 114.700 4 3 310
1891207N15123 1891 16 WP MM NOT_NAMED 1891-07-30 06:00:00 NR 18.0639 114.624 main 414 400 __________P___ -1 18.0639 114.624 4 3 318
1891207N15123 1891 16 WP MM NOT_NAMED 1891-07-30 09:00:00 NR 18.1599 114.542 main 400 395 __________P___ -1 18.1599 114.542 4 2 325
1891207N15123 1891 16 WP MM NOT_NAMED 1891-07-30 12:00:00 NR 18.2586 114.481 main 395 381 __________P___ -1 18.2586 114.481 4 2 332
1891207N15123 1891 16 WP MM NOT_NAMED 1891-07-30 15:00:00 NR 18.3633 114.422 main 381 381 __________P___ -1 18.3633 114.422 4 2 330
1891207N15123 1891 16 WP MM NOT_NAMED 1891-07-30 16:00:00 NR 18.4000 114.400 main 381 368 __________O___ -1 18.4000 114.400 4 3 321
1891207N15123 1891 16 WP MM NOT_NAMED 1891-07-30 18:00:00 NR 18.4777 114.321 main 368 354 __________P___ -1 18.4777 114.321 4 3 316
1891207N15123 1891 16 WP MM NOT_NAMED 1891-07-30 21:00:00 NR 18.6004 114.195 main 354 340 __________P___ -1 18.6004 114.195 4 3 318
1891207N15123 1891 16 WP MM NOT_NAMED 1891-07-31 00:00:00 NR 18.7279 114.084 main 340 324 __________P___ -1 18.7279 114.084 4 3 326
1891207N15123 1891 16 WP MM NOT_NAMED 1891-07-31 03:00:00 NR 18.8571 114.011 main 324 324 __________P___ -1 18.8571 114.011 4 3 335
1891207N15123 1891 16 WP MM NOT_NAMED 1891-07-31 04:00:00 NR 18.9000 114.000 main 324 321 __________O___ -1 18.9000 114.000 4 3 0
1891207N15123 1891 16 WP MM NOT_NAMED 1891-07-31 06:00:00 NR 18.9886 114.010 main 321 319 __________P___ -1 18.9886 114.010 4 3 16
1891207N15123 1891 16 WP MM NOT_NAMED 1891-07-31 09:00:00 NR 19.1216 114.069 main 330 322 __________P___ -1 19.1216 114.069 4 3 28
1891207N15123 1891 16 WP MM NOT_NAMED 1891-07-31 12:00:00 NR 19.2491 114.162 main 326 310 __________P___ -1 19.2491 114.162 4 3 37
1891207N15123 1891 16 WP MM NOT_NAMED 1891-07-31 15:00:00 NR 19.3650 114.266 main 310 310 __________P___ -1 19.3650 114.266 4 3 42
1891207N15123 1891 16 WP MM NOT_NAMED 1891-07-31 16:00:00 NR 19.4000 114.300 main 310 300 __________O___ -1 19.4000 114.300 4 2 41
1891207N15123 1891 16 WP MM NOT_NAMED 1891-07-31 18:00:00 NR 19.4588 114.353 main 305 305 __________P___ -1 19.4588 114.353 4 2 44
1891207N15123 1891 16 WP MM NOT_NAMED 1891-07-31 21:00:00 NR 19.5343 114.432 main 305 300 __________P___ -1 19.5343 114.432 4 2 45
1891207N15123 1891 16 WP MM NOT_NAMED 1891-08-01 00:00:00 NR 19.6030 114.508 main 300 292 __________P___ -1 19.6030 114.508 4 2 44
1891207N15123 1891 16 WP MM NOT_NAMED 1891-08-01 03:00:00 NR 19.6741 114.578 main 292 292 __________P___ -1 19.6741 114.578 4 2 42
1891207N15123 1891 16 WP MM NOT_NAMED 1891-08-01 04:00:00 NR 19.7000 114.600 main 292 281 __________O___ -1 19.7000 114.600 4 2 36
1891207N15123 1891 16 WP MM NOT_NAMED 1891-08-01 06:00:00 NR 19.7583 114.644 main 281 271 __________P___ -1 19.7583 114.644 4 2 33
1891207N15123 1891 16 WP MM NOT_NAMED 1891-08-01 09:00:00 NR 19.8521 114.705 main 271 262 __________P___ -1 19.8521 114.705 4 2 28
1891207N15123 1891 16 WP MM NOT_NAMED 1891-08-01 12:00:00 NR 19.9533 114.755 main 262 251 __________P___ -1 19.9533 114.755 4 2 20
1891207N15123 1891 16 WP MM NOT_NAMED 1891-08-01 15:00:00 NR 20.0621 114.791 main 251 251 __________P___ -1 20.0621 114.791 4 2 17
1891207N15123 1891 16 WP MM NOT_NAMED 1891-08-01 16:00:00 NR 20.1000 114.800 main 251 240 __________O___ -1 20.1000 114.800 4 2 16
1891207N15123 1891 16 WP MM NOT_NAMED 1891-08-01 18:00:00 NR 20.1697 114.822 main 240 229 __________P___ -1 20.1697 114.822 4 2 13
1891207N15123 1891 16 WP MM NOT_NAMED 1891-08-01 21:00:00 NR 20.2805 114.842 main 229 218 __________P___ -1 20.2805 114.842 4 2 0
1891207N15123 1891 16 WP MM NOT_NAMED 1891-08-02 00:00:00 NR 20.4042 114.842 main 218 207 __________P___ -1 20.4042 114.842 4 3 0
1891207N15123 1891 16 WP MM NOT_NAMED 1891-08-02 03:00:00 NR 20.5470 114.816 main 207 197 __________P___ -1 20.5470 114.816 4 3 346
1891207N15123 1891 16 WP MM NOT_NAMED 1891-08-02 04:00:00 NR 20.6000 114.800 main 197 186 __________O___ -1 20.6000 114.800 4 4 350
1891207N15123 1891 16 WP MM NOT_NAMED 1891-08-02 06:00:00 NR 20.7214 114.774 main 186 161 __________P___ -1 20.7214 114.774 4 4 347
1891207N15123 1891 16 WP MM NOT_NAMED 1891-08-02 09:00:00 NR 20.9224 114.711 main 161 137 __________P___ -1 20.9224 114.711 4 4 340
1891207N15123 1891 16 WP MM NOT_NAMED 1891-08-02 12:00:00 NR 21.1326 114.610 main 137 113 __________P___ -1 21.1326 114.610 4 5 331
1891207N15123 1891 16 WP MM NOT_NAMED 1891-08-02 15:00:00 NR 21.3362 114.462 main 113 101 __________P___ -1 21.3362 114.462 4 5 324
1891207N15123 1891 16 WP MM NOT_NAMED 1891-08-02 16:00:00 NR 21.4000 114.400 main 101 89 __________O___ -1 21.4000 114.400 4 5 316
1891207N15123 1891 16 WP MM NOT_NAMED 1891-08-02 18:00:00 NR 21.5193 114.267 main 89 70 __________P___ -1 21.5193 114.267 4 5 309
1891207N15123 1891 16 WP MM NOT_NAMED 1891-08-02 21:00:00 NR 21.6857 114.024 main 73 49 __________P___ -1 21.6857 114.024 4 6 303
1891207N15123 1891 16 WP MM NOT_NAMED 1891-08-03 00:00:00 NR 21.8344 113.736 main 49 15 __________P___ -1 21.8344 113.736 4 6 296
1891207N15123 1891 16 WP MM NOT_NAMED 1891-08-03 03:00:00 NR 21.9624 113.414 main 15 11 __________P___ -1 21.9624 113.414 4 7 292
1891207N15123 1891 16 WP MM NOT_NAMED 1891-08-03 04:00:00 NR 22.0000 113.300 main 11 0 __________O___ -1 22.0000 113.300 4 7 288
1891207N15123 1891 16 WP MM NOT_NAMED 1891-08-03 06:00:00 NR 22.0619 113.075 main 0 0 __________P___ -1 22.0619 113.075 4 7 284
1891207N15123 1891 16 WP MM NOT_NAMED 1891-08-03 09:00:00 NR 22.1356 112.713 main 0 0 __________P___ -1 22.1356 112.713 4 7 281
1891207N15123 1891 16 WP MM NOT_NAMED 1891-08-03 12:00:00 NR 22.2004 112.329 main 0 0 __________P___ -1 22.2004 112.329 4 7 281
1891207N15123 1891 16 WP MM NOT_NAMED 1891-08-03 15:00:00 NR 22.2719 111.933 main 0 0 __________P___ -1 22.2719 111.933 4 7 282
1891207N15123 1891 16 WP MM NOT_NAMED 1891-08-03 16:00:00 NR 22.3000 111.800 main 0 0 __________O___ -1 22.3000 111.800 4 8 284
1891207N15123 1891 16 WP MM NOT_NAMED 1891-08-03 18:00:00 NR 22.3649 111.534 main 0 0 __________P___ -1 22.3649 111.534 4 8 286
1891207N15123 1891 16 WP MM NOT_NAMED 1891-08-03 21:00:00 NR 22.4807 111.134 main 0 0 __________P___ -1 22.4807 111.134 4 8 289
1891207N15123 1891 16 WP MM NOT_NAMED 1891-08-04 00:00:00 NR 22.6123 110.734 main 0 0 __________P___ -1 22.6123 110.734 4 8 290
1891207N15123 1891 16 WP MM NOT_NAMED 1891-08-04 03:00:00 NR 22.7526 110.334 main 0 0 __________P___ -1 22.7526 110.334 4 8 291
1891207N15123 1891 16 WP MM NOT_NAMED 1891-08-04 04:00:00 NR 22.8000 110.200 main 0 __________O___ -1 22.8000 110.200 7 8 291

デジタル台風データ・検索

IBTrACS Databaseについて

本データベースは、米国NOAAが公開する1842年以降の世界の熱帯低気圧のベストトラックデータアーカイブInternational Best Track Archive for Climate Stewardship (IBTrACS)を、ウェブで閲覧しやすい形式に変換したものです。

最終更新日:2021-10-21